Time;durP1;ratioP1;P1;durP2;ratioP2;P2;SDS_P1;SDS_P2;PMS_P1;PMS_P2;Temp;Humidity;BMP_temperature;BMP_pressure;BME280_temperature;BME280_humidity;BME280_pressure;Samples;Min_cycle;Max_cycle;Signal;HPM_P1;HPM_P2
2024/03/20 00:00:31;;;;;;;13.27;4.75;;;;;;;8.25;100.00;102022.25;5096403;28;20024;-75
2024/03/20 00:02:57;;;;;;;12.18;4.03;;;;;;;8.25;100.00;102027.56;5095647;28;20418;-75
2024/03/20 00:05:22;;;;;;;16.67;4.20;;;;;;;8.25;100.00;102027.56;5095459;28;20070;-75
2024/03/20 00:07:47;;;;;;;15.35;4.55;;;;;;;8.26;100.00;102029.28;5077633;28;20340;-76
2024/03/20 00:10:13;;;;;;;17.08;3.70;;;;;;;8.25;100.00;102028.41;5095280;28;20085;-75
2024/03/20 00:12:42;;;;;;;12.68;3.45;;;;;;;8.24;100.00;102026.72;5095234;28;20506;-75
2024/03/20 00:15:08;;;;;;;17.98;4.15;;;;;;;8.20;100.00;102033.16;5095264;28;20020;-75
2024/03/20 00:17:34;;;;;;;8.68;3.72;;;;;;;8.15;100.00;102029.06;5095476;28;20412;-75
2024/03/20 00:20:00;;;;;;;9.40;3.53;;;;;;;8.10;100.00;102027.56;5095214;28;20031;-75
2024/03/20 00:22:26;;;;;;;13.30;4.20;;;;;;;8.03;100.00;102028.91;5095108;28;20034;-75
2024/03/20 00:24:51;;;;;;;10.73;3.22;;;;;;;7.95;100.00;102029.34;5095295;28;20102;-76
2024/03/20 00:27:16;;;;;;;13.05;3.40;;;;;;;7.85;100.00;102028.22;5095094;28;20078;-74
2024/03/20 00:29:42;;;;;;;15.55;3.60;;;;;;;7.75;100.00;102025.25;5095273;28;20495;-75
2024/03/20 00:32:07;;;;;;;8.80;3.42;;;;;;;7.63;100.00;102023.34;5094668;28;20192;-75
2024/03/20 00:34:32;;;;;;;12.32;3.58;;;;;;;7.53;100.00;102017.72;5095108;28;20028;-75
2024/03/20 00:36:58;;;;;;;16.60;3.63;;;;;;;7.46;100.00;102015.53;5094839;28;20016;-75
2024/03/20 00:39:23;;;;;;;9.02;3.67;;;;;;;7.38;100.00;102013.34;5095096;28;20103;-75
2024/03/20 00:41:49;;;;;;;8.40;3.95;;;;;;;7.32;100.00;102013.69;5094633;28;20035;-76
2024/03/20 00:44:14;;;;;;;12.25;3.80;;;;;;;7.28;100.00;102006.88;5094829;28;20024;-75
2024/03/20 00:46:39;;;;;;;16.92;3.80;;;;;;;7.24;100.00;102014.16;5094664;28;20024;-75
2024/03/20 00:49:06;;;;;;;11.40;3.80;;;;;;;7.19;100.00;102017.03;5094547;28;20034;-75
2024/03/20 00:51:31;;;;;;;11.90;4.00;;;;;;;7.15;100.00;102025.25;5094825;28;20032;-75
2024/03/20 00:53:57;;;;;;;11.48;3.97;;;;;;;7.12;100.00;102020.13;5094563;28;20479;-75
2024/03/20 00:56:22;;;;;;;11.07;3.70;;;;;;;7.09;100.00;102025.59;5094478;28;20371;-75
2024/03/20 00:58:47;;;;;;;11.18;4.57;;;;;;;7.07;100.00;102015.94;5094523;28;20024;-75
2024/03/20 01:01:13;;;;;;;13.50;4.32;;;;;;;7.07;100.00;102015.94;5076031;28;20047;-75
2024/03/20 01:03:38;;;;;;;15.60;4.50;;;;;;;7.10;100.00;102020.22;5059879;28;20115;-75
2024/03/20 01:06:04;;;;;;;11.13;5.00;;;;;;;7.14;100.00;102005.03;5075953;28;20023;-75
2024/03/20 01:08:29;;;;;;;9.50;4.07;;;;;;;7.20;100.00;102017.91;5076249;28;20074;-75
2024/03/20 01:10:55;;;;;;;15.85;4.65;;;;;;;7.26;100.00;101999.00;5094377;28;20027;-76
2024/03/20 01:13:22;;;;;;;17.10;4.28;;;;;;;7.31;100.00;102004.03;5076054;28;20071;-76
2024/03/20 01:15:48;;;;;;;15.70;4.50;;;;;;;7.33;100.00;101996.84;5094636;28;20028;-75
2024/03/20 01:18:13;;;;;;;17.20;4.47;;;;;;;7.32;100.00;102006.59;5094505;28;20050;-76
2024/03/20 01:20:39;;;;;;;11.32;3.67;;;;;;;7.34;100.00;102006.50;5094046;28;20375;-75
2024/03/20 01:23:04;;;;;;;12.20;4.55;;;;;;;7.32;100.00;102005.75;5093830;28;20028;-75
2024/03/20 01:25:29;;;;;;;11.52;4.40;;;;;;;7.31;100.00;102004.88;5093905;28;20028;-75
2024/03/20 01:27:54;;;;;;;16.20;4.80;;;;;;;7.31;100.00;101990.78;5094007;28;20020;-76
2024/03/20 01:30:20;;;;;;;23.15;5.20;;;;;;;7.31;100.00;101988.16;5093863;28;20057;-75
2024/03/20 01:32:45;;;;;;;8.68;4.95;;;;;;;7.29;100.00;101982.94;5075640;28;20027;-75
2024/03/20 01:35:11;;;;;;;13.18;4.30;;;;;;;7.29;100.00;101985.59;5093757;28;20035;-75
2024/03/20 01:37:36;;;;;;;13.27;4.05;;;;;;;7.30;100.00;101986.44;5093627;28;20081;-75
2024/03/20 01:40:02;;;;;;;15.85;4.38;;;;;;;7.28;100.00;101978.59;5093677;28;20019;-75
2024/03/20 01:42:27;;;;;;;8.93;4.18;;;;;;;7.31;100.00;101986.34;5092842;28;20150;-75
2024/03/20 01:45:11;;;;;;;14.73;4.50;;;;;;;7.34;100.00;101985.31;5093610;28;20051;-76
2024/03/20 01:47:37;;;;;;;13.95;5.00;;;;;;;7.36;100.00;101986.94;5076540;28;20030;-76
2024/03/20 01:50:03;;;;;;;11.82;4.15;;;;;;;7.39;100.00;101980.63;5093487;28;20012;-76
2024/03/20 01:52:29;;;;;;;16.70;4.53;;;;;;;7.37;100.00;101972.75;5093967;28;20024;-76
2024/03/20 01:54:54;;;;;;;16.85;4.85;;;;;;;7.34;100.00;101970.28;5075342;28;20023;-76
2024/03/20 01:57:20;;;;;;;11.40;4.30;;;;;;;7.30;100.00;101967.91;5093563;28;20127;-75
2024/03/20 01:59:45;;;;;;;13.35;5.03;;;;;;;7.27;100.00;101966.31;5075278;28;20466;-75
2024/03/20 02:02:10;;;;;;;10.63;4.60;;;;;;;7.23;100.00;101965.63;5074998;28;20475;-76
2024/03/20 02:04:36;;;;;;;11.88;4.15;;;;;;;7.19;100.00;101963.25;5075278;28;20436;-75
2024/03/20 02:07:01;;;;;;;14.88;4.95;;;;;;;7.14;100.00;101955.56;5093204;28;20030;-76
2024/03/20 02:09:27;;;;;;;13.50;4.13;;;;;;;7.11;100.00;101961.03;5093549;28;20024;-75
2024/03/20 02:11:52;;;;;;;12.05;4.28;;;;;;;7.07;100.00;101965.66;5093273;28;20358;-75
2024/03/20 02:14:18;;;;;;;11.82;4.40;;;;;;;7.03;100.00;101960.63;5074759;28;20518;-76
2024/03/20 02:16:43;;;;;;;15.55;4.88;;;;;;;6.99;100.00;101962.59;5093480;28;20367;-76
2024/03/20 02:19:09;;;;;;;15.77;4.75;;;;;;;6.94;100.00;101961.16;5093352;28;20024;-76
2024/03/20 02:21:34;;;;;;;16.63;5.50;;;;;;;6.87;100.00;101961.50;5093611;28;20062;-76
2024/03/20 02:24:05;;;;;;;10.63;4.82;;;;;;;6.82;100.00;101966.22;5093308;28;20028;-75
2024/03/20 02:26:30;;;;;;;15.00;4.30;;;;;;;6.77;100.00;101959.50;5093353;28;20028;-75
2024/03/20 02:28:56;;;;;;;15.68;4.30;;;;;;;6.71;100.00;101950.09;5093125;28;20024;-75
2024/03/20 02:31:21;;;;;;;13.35;4.38;;;;;;;6.67;100.00;101960.00;5093186;28;20020;-76
2024/03/20 02:33:46;;;;;;;9.50;4.07;;;;;;;6.65;100.00;101961.03;5093294;28;20031;-76
2024/03/20 02:36:11;;;;;;;14.88;5.13;;;;;;;6.59;100.00;101949.00;5092877;28;20062;-76
2024/03/20 02:38:38;;;;;;;11.90;4.53;;;;;;;6.56;100.00;101957.09;5092974;28;20059;-76
2024/03/20 02:41:06;;;;;;;11.27;4.60;;;;;;;6.51;100.00;101952.06;5092871;28;20467;-77
2024/03/20 02:43:31;;;;;;;9.95;4.80;;;;;;;6.47;100.00;101950.53;5093024;28;20028;-76
2024/03/20 02:45:56;;;;;;;12.95;4.47;;;;;;;6.45;100.00;101959.47;5092931;28;20455;-75
2024/03/20 02:48:22;;;;;;;15.05;4.95;;;;;;;6.44;100.00;101956.00;5092559;28;20028;-76
2024/03/20 02:50:47;;;;;;;13.18;5.13;;;;;;;6.44;100.00;101949.88;5092680;28;20031;-75
2024/03/20 02:53:13;;;;;;;15.00;4.75;;;;;;;6.44;100.00;101944.56;5074867;28;20107;-78
2024/03/20 02:55:41;;;;;;;19.60;5.18;;;;;;;6.41;100.00;101937.66;5096272;28;20051;-78
2024/03/20 02:58:06;;;;;;;11.57;4.03;;;;;;;6.41;100.00;101940.31;5096653;28;20016;-76
2024/03/20 03:00:32;;;;;;;7.80;4.40;;;;;;;6.41;100.00;101940.31;5097006;28;20351;-75
2024/03/20 03:02:58;;;;;;;13.38;4.60;;;;;;;6.44;100.00;101948.06;5096501;28;20027;-74
2024/03/20 03:05:27;;;;;;;11.95;4.65;;;;;;;6.43;100.00;101951.63;5096334;28;20374;-77
2024/03/20 03:07:54;;;;;;;12.60;4.85;;;;;;;6.44;100.00;101952.50;5096959;28;20409;-75
2024/03/20 03:10:20;;;;;;;14.27;4.80;;;;;;;6.41;100.00;101953.53;5096831;28;20464;-75
2024/03/20 03:12:48;;;;;;;13.13;5.00;;;;;;;6.39;100.00;101957.19;5078249;28;20110;-74
2024/03/20 03:15:15;;;;;;;10.25;4.22;;;;;;;6.38;100.00;101950.22;5078571;28;20024;-75
2024/03/20 03:17:41;;;;;;;14.43;4.80;;;;;;;6.37;100.00;101951.13;5096346;28;20020;-75
2024/03/20 03:20:14;;;;;;;11.45;4.95;;;;;;;6.40;100.00;101938.59;5096351;28;20051;-77
2024/03/20 03:22:41;;;;;;;17.75;5.25;;;;;;;6.44;100.00;101947.22;5077947;28;20024;-77
2024/03/20 03:25:07;;;;;;;13.20;4.78;;;;;;;6.45;100.00;101944.50;5096199;28;20020;-77
2024/03/20 03:27:32;;;;;;;10.90;5.20;;;;;;;6.48;100.00;101943.47;5096314;28;20020;-77
2024/03/20 03:29:58;;;;;;;14.20;6.50;;;;;;;6.53;100.00;101944.06;5061264;28;20475;-77
2024/03/20 03:32:23;;;;;;;10.95;5.32;;;;;;;6.58;100.00;101941.16;5095986;28;20465;-77
2024/03/20 03:34:48;;;;;;;12.15;5.55;;;;;;;6.62;100.00;101942.69;5095973;28;20030;-76
2024/03/20 03:37:14;;;;;;;16.17;4.95;;;;;;;6.67;100.00;101945.91;5077902;28;20030;-76
2024/03/20 03:39:39;;;;;;;19.65;5.78;;;;;;;6.72;100.00;101935.94;5095908;28;20110;-77
2024/03/20 03:42:04;;;;;;;21.15;6.05;;;;;;;6.76;100.00;101940.09;5095934;28;20106;-76
2024/03/20 03:44:30;;;;;;;16.23;4.93;;;;;;;6.78;100.00;101947.97;5095970;28;20178;-76
2024/03/20 03:46:55;;;;;;;13.20;5.00;;;;;;;6.78;100.00;101938.25;5095856;28;20532;-77
2024/03/20 03:49:20;;;;;;;20.00;5.72;;;;;;;6.75;100.00;101943.72;5096039;28;20028;-77
2024/03/20 03:51:46;;;;;;;16.35;5.57;;;;;;;6.73;100.00;101947.38;5095643;28;20122;-77
2024/03/20 03:54:11;;;;;;;12.27;5.03;;;;;;;6.69;100.00;101952.84;5095575;28;20414;-77
2024/03/20 03:56:36;;;;;;;11.85;4.63;;;;;;;6.65;100.00;101948.66;5095444;28;20516;-77
2024/03/20 03:59:02;;;;;;;10.25;4.28;;;;;;;6.63;100.00;101953.19;5095564;28;20081;-77
2024/03/20 04:01:27;;;;;;;12.98;4.50;;;;;;;6.61;100.00;101954.19;5095385;28;20024;-77
2024/03/20 04:03:52;;;;;;;9.35;4.45;;;;;;;6.59;100.00;101962.22;5095361;28;20032;-77
2024/03/20 04:06:18;;;;;;;10.43;4.43;;;;;;;6.59;100.00;101962.22;5094764;28;20024;-77
2024/03/20 04:08:44;;;;;;;9.25;4.70;;;;;;;6.59;100.00;101962.22;5095380;28;20106;-76
2024/03/20 04:11:09;;;;;;;13.48;4.70;;;;;;;6.58;100.00;101963.16;5095353;28;20405;-76
2024/03/20 04:13:34;;;;;;;10.57;4.70;;;;;;;6.59;100.00;101961.38;5095459;28;20456;-77
2024/03/20 04:16:00;;;;;;;16.02;5.30;;;;;;;6.59;100.00;101966.66;5095219;28;20031;-77
2024/03/20 04:18:25;;;;;;;12.82;4.60;;;;;;;6.60;100.00;101971.00;5095280;28;20042;-77
2024/03/20 04:20:50;;;;;;;13.70;4.63;;;;;;;6.58;100.00;101964.94;5095072;28;20050;-77
2024/03/20 04:23:16;;;;;;;10.52;4.93;;;;;;;6.52;100.00;101974.94;5095432;28;20030;-81
2024/03/20 04:25:41;;;;;;;12.35;4.80;;;;;;;6.49;100.00;101969.81;5095432;28;20035;-77
2024/03/20 04:28:07;;;;;;;15.27;5.65;;;;;;;6.47;100.00;101969.03;5077116;28;20456;-78
2024/03/20 04:30:32;;;;;;;12.68;4.95;;;;;;;6.46;100.00;101969.13;5076678;28;20069;-77
2024/03/20 04:32:57;;;;;;;14.65;4.50;;;;;;;6.45;100.00;101970.06;5095086;28;20012;-77
2024/03/20 04:35:23;;;;;;;18.27;5.45;;;;;;;6.45;100.00;101970.94;5094749;28;20016;-77
2024/03/20 04:37:48;;;;;;;14.57;5.88;;;;;;;6.48;100.00;101970.75;5094738;28;20066;-77
2024/03/20 04:40:13;;;;;;;14.23;5.28;;;;;;;6.51;100.00;101975.88;5094669;28;20020;-77
2024/03/20 04:42:39;;;;;;;17.08;5.78;;;;;;;6.55;100.00;101979.19;5094563;28;20028;-77
2024/03/20 04:45:04;;;;;;;17.90;5.95;;;;;;;6.58;100.00;101975.53;5076843;28;20077;-76
2024/03/20 04:47:30;;;;;;;18.13;6.00;;;;;;;6.58;100.00;101978.19;5094499;28;20026;-77
2024/03/20 04:49:55;;;;;;;9.65;5.20;;;;;;;6.57;100.00;101977.34;5094562;28;20024;-76
2024/03/20 04:52:21;;;;;;;17.33;5.65;;;;;;;6.58;100.00;101986.09;5094405;28;20042;-77
2024/03/20 04:54:46;;;;;;;24.55;6.20;;;;;;;6.57;100.00;101985.25;5094738;28;20055;-76
2024/03/20 04:57:12;;;;;;;20.88;6.60;;;;;;;6.59;100.00;101987.81;5094346;28;20024;-77
2024/03/20 04:59:37;;;;;;;22.50;6.03;;;;;;;6.59;100.00;101985.19;5094323;28;20024;-77
2024/03/20 05:02:03;;;;;;;14.80;5.18;;;;;;;6.58;100.00;101984.31;5094277;28;20027;-76
2024/03/20 05:04:28;;;;;;;19.50;5.70;;;;;;;6.60;100.00;101987.75;5076123;28;20071;-76
2024/03/20 05:06:54;;;;;;;12.80;6.18;;;;;;;6.62;100.00;101992.94;5094239;28;20059;-76
2024/03/20 05:09:19;;;;;;;13.35;5.63;;;;;;;6.62;100.00;101980.56;5076143;28;20063;-76
2024/03/20 05:11:45;;;;;;;12.85;5.43;;;;;;;6.65;100.00;101992.78;5094286;28;20030;-76
2024/03/20 05:14:10;;;;;;;14.90;5.43;;;;;;;6.65;100.00;101990.97;5093773;28;20149;-74
2024/03/20 05:16:36;;;;;;;18.77;5.53;;;;;;;6.66;100.00;101983.91;5093843;28;20032;-77
2024/03/20 05:19:01;;;;;;;15.13;6.68;;;;;;;6.65;100.00;101988.31;5076154;28;20027;-77
2024/03/20 05:21:26;;;;;;;12.68;5.63;;;;;;;6.63;100.00;101992.00;5093721;28;20109;-77
2024/03/20 05:23:52;;;;;;;12.15;5.45;;;;;;;6.60;100.00;101987.75;5093702;28;20085;-77
2024/03/20 05:26:17;;;;;;;14.25;4.90;;;;;;;6.56;100.00;101988.84;5093890;28;20059;-77
2024/03/20 05:28:43;;;;;;;16.95;5.75;;;;;;;6.49;100.00;101985.69;5093834;28;20032;-77
2024/03/20 05:31:25;;;;;;;18.25;5.63;;;;;;;6.40;100.00;101985.34;5094069;28;20046;-77
2024/03/20 05:33:50;;;;;;;11.48;4.90;;;;;;;6.34;100.00;101989.16;5093990;28;20031;-77
2024/03/20 05:36:16;;;;;;;13.07;5.60;;;;;;;6.27;100.00;101983.38;5093622;28;20028;-76
2024/03/20 05:38:41;;;;;;;20.67;5.63;;;;;;;6.22;100.00;101984.53;5094096;28;20023;-77
2024/03/20 05:41:06;;;;;;;14.50;5.72;;;;;;;6.16;100.00;101988.38;5094166;28;20035;-76
2024/03/20 05:43:32;;;;;;;12.55;5.93;;;;;;;6.15;100.00;101986.66;5093650;28;20028;-77
2024/03/20 05:45:57;;;;;;;12.98;5.22;;;;;;;6.15;100.00;101991.94;5075504;28;20016;-77
2024/03/20 05:48:22;;;;;;;15.75;6.07;;;;;;;6.18;100.00;101991.78;5093495;28;20456;-76
2024/03/20 05:50:47;;;;;;;13.00;5.50;;;;;;;6.21;100.00;101986.34;5093394;28;20027;-76
2024/03/20 05:53:13;;;;;;;17.27;6.60;;;;;;;6.24;100.00;101977.38;5075357;28;20020;-76
2024/03/20 05:55:39;;;;;;;20.25;6.55;;;;;;;6.24;100.00;101988.81;5093307;28;20495;-77
2024/03/20 05:58:05;;;;;;;15.07;5.68;;;;;;;6.24;100.00;101983.53;5075397;28;20069;-76
2024/03/20 06:00:31;;;;;;;18.10;6.80;;;;;;;6.26;100.00;101991.38;5093162;28;20020;-77
2024/03/20 06:02:57;;;;;;;16.45;6.63;;;;;;;6.28;100.00;101994.78;5093202;28;20036;-76
2024/03/20 06:05:22;;;;;;;16.48;6.50;;;;;;;6.29;100.00;101994.69;5075187;28;20030;-76
2024/03/20 06:07:48;;;;;;;21.73;6.57;;;;;;;6.29;100.00;101999.97;5093287;28;20112;-77
2024/03/20 06:10:13;;;;;;;12.68;5.85;;;;;;;6.30;100.00;102001.69;5093332;28;20466;-76
2024/03/20 06:12:40;;;;;;;18.90;6.85;;;;;;;6.30;100.00;102004.34;5092840;28;20471;-75
2024/03/20 06:15:05;;;;;;;13.75;6.07;;;;;;;6.29;100.00;102004.44;5093184;28;20027;-76
2024/03/20 06:17:32;;;;;;;18.38;6.00;;;;;;;6.30;100.00;102012.28;5092773;28;20394;-77
2024/03/20 06:19:58;;;;;;;12.95;5.97;;;;;;;6.32;100.00;102013.03;5093256;28;20020;-76
2024/03/20 06:22:27;;;;;;;10.18;5.57;;;;;;;6.36;100.00;102016.38;5093750;28;20126;-76
2024/03/20 06:24:52;;;;;;;17.98;7.15;;;;;;;6.43;100.00;102020.38;5092770;28;20020;-78
2024/03/20 06:27:18;;;;;;;19.13;7.25;;;;;;;6.49;100.00;102030.66;5093369;28;20031;-77
2024/03/20 06:29:45;;;;;;;13.18;6.20;;;;;;;6.54;100.00;102027.75;5078920;28;20020;-76
2024/03/20 06:32:10;;;;;;;20.27;6.80;;;;;;;6.60;100.00;102026.53;5099645;28;20341;-78
2024/03/20 06:34:36;;;;;;;23.45;6.68;;;;;;;6.65;100.00;102022.69;5099724;28;20012;-76
2024/03/20 06:37:01;;;;;;;14.88;6.97;;;;;;;6.72;100.00;102020.59;5099979;28;20381;-78
2024/03/20 06:39:27;;;;;;;19.85;7.03;;;;;;;6.79;100.00;102031.66;5099601;28;20023;-78
2024/03/20 06:41:52;;;;;;;21.15;7.20;;;;;;;6.89;100.00;102033.72;5099421;28;20048;-75
2024/03/20 06:44:19;;;;;;;18.60;7.03;;;;;;;7.00;100.00;102030.47;5099675;28;20547;-74
2024/03/20 06:46:45;;;;;;;18.75;6.63;;;;;;;7.11;100.00;102032.50;5081420;28;20036;-75
2024/03/20 06:49:11;;;;;;;19.33;7.43;;;;;;;7.22;100.00;102030.09;5099444;28;20106;-75
2024/03/20 06:51:36;;;;;;;15.80;6.68;;;;;;;7.34;100.00;102033.81;5099310;28;20028;-78
2024/03/20 06:54:16;;;;;;;22.42;7.68;;;;;;;7.45;100.00;102030.56;5099478;28;20027;-75
2024/03/20 06:56:47;;;;;;;15.13;7.25;;;;;;;7.57;100.00;102031.66;5099569;28;20149;-74
2024/03/20 06:59:12;;;;;;;21.95;7.72;;;;;;;7.72;100.00;102030.72;5099607;28;20027;-75
2024/03/20 07:01:38;;;;;;;17.67;8.27;;;;;;;7.85;100.00;102037.94;5099195;28;20023;-76
2024/03/20 07:04:03;;;;;;;20.92;8.20;;;;;;;7.96;100.00;102035.50;5099343;28;20024;-74
2024/03/20 07:06:29;;;;;;;20.23;7.63;;;;;;;8.05;100.00;102037.59;5099511;28;20363;-76
2024/03/20 07:08:54;;;;;;;17.33;6.95;;;;;;;8.14;100.00;102041.50;5099391;28;20065;-75
2024/03/20 07:11:19;;;;;;;17.45;6.85;;;;;;;8.24;100.00;102041.75;5099240;28;20460;-75
2024/03/20 07:13:45;;;;;;;17.23;6.72;;;;;;;8.35;100.00;102044.63;5098903;28;20380;-76
2024/03/20 07:16:11;;;;;;;19.80;6.53;;;;;;;8.45;100.00;102034.34;5099270;28;20403;-76
2024/03/20 07:18:36;;;;;;;19.80;6.57;;;;;;;8.59;100.00;102038.75;5099451;28;20031;-74
2024/03/20 07:21:03;;;;;;;13.23;6.95;;;;;;;8.75;100.00;102042.16;5099368;28;20491;-76
2024/03/20 07:23:29;;;;;;;16.95;7.20;;;;;;;8.96;100.00;102036.41;5099006;28;20054;-75
2024/03/20 07:25:54;;;;;;;15.55;7.03;;;;;;;9.15;100.00;102039.56;5098983;28;20020;-76
2024/03/20 07:28:19;;;;;;;13.23;6.80;;;;;;;9.31;100.00;102034.06;5099254;28;20028;-76
2024/03/20 07:30:44;;;;;;;18.92;6.85;;;;;;;9.43;100.00;102034.22;5098960;28;20023;-76
2024/03/20 07:33:10;;;;;;;19.02;6.72;;;;;;;9.52;100.00;102033.59;5099159;28;20114;-75
2024/03/20 07:35:48;;;;;;;19.33;7.43;;;;;;;9.66;100.00;102024.72;5099402;28;20103;-76
2024/03/20 07:38:14;;;;;;;19.02;7.00;;;;;;;9.74;100.00;102030.34;5080944;28;20015;-74
2024/03/20 07:40:40;;;;;;;18.08;7.20;;;;;;;9.82;100.00;102027.16;5096334;28;20487;-74
2024/03/20 07:43:07;;;;;;;19.88;7.10;;;;;;;9.94;100.00;102030.78;5095767;28;20047;-74
2024/03/20 07:45:33;;;;;;;18.60;7.43;;;;;;;10.13;100.00;102025.91;5077853;28;20028;-74
2024/03/20 07:47:59;;;;;;;18.35;6.93;;;;;;;10.31;100.00;102029.06;5095680;28;20020;-72
2024/03/20 07:50:24;;;;;;;16.80;6.65;;;;;;;10.54;100.00;102031.97;5095861;28;20464;-74
2024/03/20 07:52:50;;;;;;;18.38;7.00;;;;;;;10.81;100.00;102026.47;5095546;28;20028;-74
2024/03/20 07:55:15;;;;;;;13.57;6.60;;;;;;;11.05;100.00;102030.94;5095794;28;20028;-74
2024/03/20 07:57:40;;;;;;;15.18;7.35;;;;;;;11.25;100.00;102026.78;5095507;28;20082;-73
2024/03/20 08:00:08;;;;;;;18.60;6.88;;;;;;;11.39;100.00;102036.41;5095502;28;20024;-75
2024/03/20 08:02:34;;;;;;;19.55;7.07;;;;;;;11.46;100.00;102027.00;5095709;28;20164;-73
2024/03/20 08:04:59;;;;;;;18.15;7.53;;;;;;;11.58;100.00;102038.53;5077094;28;20111;-74
2024/03/20 08:07:25;;;;;;;18.20;6.18;;;;;;;11.74;100.00;102035.56;5095372;28;20028;-74
2024/03/20 08:09:50;;;;;;;15.95;6.78;;;;;;;11.91;100.00;102037.81;5077192;28;20024;-74
2024/03/20 08:12:16;;;;;;;18.38;7.22;;;;;;;12.08;100.00;102041.00;5095445;28;20059;-73
2024/03/20 08:14:41;;;;;;;17.60;6.80;;;;;;;12.26;100.00;102039.56;5095497;28;20111;-75
2024/03/20 08:17:08;;;;;;;15.43;6.32;;;;;;;12.37;100.00;102037.84;5095384;28;20032;-75
2024/03/20 08:19:33;;;;;;;17.95;7.25;;;;;;;12.40;100.00;102034.94;5077521;28;20036;-75
2024/03/20 08:21:59;;;;;;;16.15;6.53;;;;;;;12.34;100.00;102039.78;5095750;28;20533;-76
2024/03/20 08:24:24;;;;;;;18.40;6.25;;;;;;;12.36;100.00;102039.69;5095020;28;20468;-77
2024/03/20 08:26:49;;;;;;;15.27;6.20;;;;;;;12.32;100.00;102036.41;5095446;28;20038;-75
2024/03/20 08:29:16;;;;;;;17.08;6.43;;;;;;;12.47;100.00;102033.50;5095438;28;20032;-74
2024/03/20 08:31:41;;;;;;;22.23;6.97;;;;;;;12.70;100.00;102029.81;5095311;28;20067;-74
2024/03/20 08:34:06;;;;;;;16.55;6.07;;;;;;;13.02;100.00;102031.69;5094626;28;20056;-75
2024/03/20 08:36:31;;;;;;;15.02;6.15;;;;;;;13.29;100.00;102032.22;5094736;28;20036;-74
2024/03/20 08:38:57;;;;;;;14.98;6.28;;;;;;;13.63;100.00;102040.94;5094888;28;20020;-76
2024/03/20 08:41:22;;;;;;;16.90;6.25;;;;;;;13.83;100.00;102036.56;5076698;28;20094;-75
2024/03/20 08:43:48;;;;;;;18.98;5.90;;;;;;;14.06;100.00;102039.94;5094572;28;20107;-75
2024/03/20 08:46:14;;;;;;;12.50;5.72;;;;;;;14.29;100.00;102042.44;5094464;28;20032;-77
2024/03/20 08:48:40;;;;;;;18.52;5.75;;;;;;;14.35;100.00;102044.59;5094513;28;20112;-77
2024/03/20 08:51:06;;;;;;;15.85;6.47;;;;;;;14.46;100.00;102046.31;5094419;28;20028;-75
2024/03/20 08:53:32;;;;;;;24.58;6.32;;;;;;;14.59;100.00;102057.63;5076057;28;20478;-74
2024/03/20 08:56:01;;;;;;;16.63;6.43;;;;;;;14.46;100.00;102046.31;5094363;28;20094;-76
2024/03/20 08:58:26;;;;;;;15.80;5.95;;;;;;;14.40;100.00;102060.25;5094320;28;20035;-75
2024/03/20 09:00:53;;;;;;;18.27;7.15;;;;;;;14.29;100.00;102053.16;5094540;28;20470;-82
2024/03/20 09:03:19;;;;;;;18.92;6.35;;;;;;;14.22;100.00;102052.00;5094322;28;20032;-75
2024/03/20 09:05:44;;;;;;;15.07;5.72;;;;;;;14.18;100.00;102055.91;5094206;28;20031;-76
2024/03/20 09:08:10;;;;;;;15.75;6.05;;;;;;;14.14;100.00;102057.16;5075924;28;20034;-74
2024/03/20 09:10:36;;;;;;;10.52;5.80;;;;;;;14.19;100.00;102055.78;5094342;28;20027;-75
2024/03/20 09:13:01;;;;;;;17.42;6.93;;;;;;;14.21;100.00;102058.31;5093787;28;20106;-74
2024/03/20 09:15:27;;;;;;;18.00;7.28;;;;;;;14.29;100.00;102050.47;5094018;28;20495;-74
2024/03/20 09:17:52;;;;;;;15.52;7.00;;;;;;;14.47;100.00;102050.69;5093887;28;20491;-73
2024/03/20 09:20:25;;;;;;;17.67;7.25;;;;;;;14.54;100.00;102048.31;5094029;28;20088;-73
2024/03/20 09:22:55;;;;;;;20.02;7.63;;;;;;;14.58;100.00;102047.91;5094250;28;20043;-72
2024/03/20 09:25:21;;;;;;;22.73;9.00;;;;;;;14.68;100.00;102045.28;5094316;28;20294;-72
2024/03/20 09:27:47;;;;;;;24.23;9.88;;;;;;;14.86;100.00;102053.50;5094011;28;20391;-72
2024/03/20 09:30:15;;;;;;;18.85;9.80;;;;;;;14.93;100.00;102043.09;5093645;28;20075;-72
2024/03/20 09:32:42;;;;;;;21.15;9.65;;;;;;;15.04;100.00;102042.97;5093639;28;20028;-71
2024/03/20 09:35:09;;;;;;;16.90;9.07;;;;;;;14.88;100.00;102045.34;5093531;28;20521;-71
2024/03/20 09:37:35;;;;;;;19.92;9.43;;;;;;;14.90;100.00;102054.06;5093592;28;20027;-72
2024/03/20 09:40:00;;;;;;;19.58;10.05;;;;;;;15.09;100.00;102045.22;5075144;28;20387;-73
2024/03/20 09:42:25;;;;;;;25.95;10.57;;;;;;;15.66;100.00;102042.69;5093598;28;20057;-72
2024/03/20 09:44:51;;;;;;;19.38;9.27;;;;;;;16.35;100.00;102046.91;5093706;28;20032;-72
2024/03/20 09:47:16;;;;;;;21.92;10.10;;;;;;;17.31;100.00;102042.94;5093394;28;20020;-76
2024/03/20 09:49:43;;;;;;;14.75;8.52;;;;;;;18.28;100.00;102046.53;5093318;28;20028;-73
2024/03/20 09:52:09;;;;;;;21.48;9.98;;;;;;;18.90;100.00;102040.06;5093127;28;20028;-73
2024/03/20 09:54:34;;;;;;;18.63;9.13;;;;;;;19.41;100.00;102037.25;5093209;28;20020;-71
2024/03/20 09:57:00;;;;;;;21.63;10.63;;;;;;;19.94;100.00;102036.88;5093093;28;20038;-76
2024/03/20 09:59:25;;;;;;;25.35;11.88;;;;;;;20.25;100.00;102039.66;5074575;28;20031;-73
2024/03/20 10:01:51;;;;;;;20.80;11.43;;;;;;;19.71;100.00;102033.00;5093232;28;20028;-73
2024/03/20 10:04:16;;;;;;;27.98;11.88;;;;;;;19.23;100.00;102025.75;5092206;28;20028;-86
2024/03/20 10:06:42;;;;;;;19.38;11.40;;;;;;;18.96;100.00;102035.84;5093207;28;20095;-76
2024/03/20 10:09:12;;;;;;;21.30;12.00;;;;;;;18.74;100.00;102034.59;5093320;28;20028;-75
2024/03/20 10:11:37;;;;;;;26.50;11.90;;;;;;;18.49;100.00;102027.25;5092629;28;20024;-74
2024/03/20 10:14:02;;;;;;;24.00;11.68;;;;;;;18.56;100.00;102023.91;5092231;28;20063;-75
2024/03/20 10:16:30;;;;;;;24.67;11.82;;;;;;;18.37;100.00;102033.09;5092635;28;20024;-75
2024/03/20 10:18:55;;;;;;;22.00;11.90;;;;;;;18.65;100.00;102034.56;5092882;28;20133;-74
2024/03/20 10:21:20;;;;;;;22.40;12.52;;;;;;;18.23;100.00;102029.16;5058545;28;20067;-74
2024/03/20 10:23:46;;;;;;;25.63;12.80;;;;;;;18.13;100.00;102026.59;5092403;28;20024;-75
2024/03/20 10:26:13;;;;;;;26.20;12.85;;;;;;;17.98;100.00;102035.25;5092415;28;20028;-76
2024/03/20 10:28:39;;;;;;;22.52;13.07;;;;;;;18.02;100.00;102030.41;5093192;28;20449;-75
2024/03/20 10:31:07;;;;;;;21.75;12.55;;;;;;;17.86;100.00;102024.88;5092881;28;20028;-75
2024/03/20 10:33:36;;;;;;;23.73;12.93;;;;;;;17.90;100.00;102020.88;5074366;28;20434;-76
2024/03/20 10:36:02;;;;;;;26.17;12.98;;;;;;;18.11;100.00;102028.59;5092592;28;20028;-77
2024/03/20 10:38:28;;;;;;;27.25;12.45;;;;;;;17.96;100.00;102023.78;5092171;28;20032;-76
2024/03/20 10:40:55;;;;;;;19.83;11.63;;;;;;;17.93;100.00;102025.97;5092528;28;20055;-76
2024/03/20 10:43:25;;;;;;;25.27;12.25;;;;;;;17.69;100.00;102030.16;5092499;28;20035;-75
2024/03/20 10:45:55;;;;;;;27.75;12.30;;;;;;;17.37;100.00;102022.66;5092765;28;20028;-77
2024/03/20 10:48:23;;;;;;;29.80;12.90;;;;;;;17.33;100.00;102026.66;5092739;28;20062;-76
2024/03/20 10:50:53;;;;;;;23.88;12.95;;;;;;;17.40;100.00;102028.56;5093111;28;20099;-77
2024/03/20 10:53:21;;;;;;;25.13;11.55;;;;;;;17.37;100.00;102030.75;5092569;28;20097;-76
2024/03/20 10:55:50;;;;;;;25.55;11.95;;;;;;;17.41;100.00;102027.56;5092612;28;20024;-76
2024/03/20 10:58:16;;;;;;;15.50;10.10;;;;;;;17.30;100.00;102026.97;5092833;28;20035;-76
2024/03/20 11:00:45;;;;;;;20.23;10.02;;;;;;;17.41;100.00;102021.38;5092609;28;20396;-75
2024/03/20 11:03:50;;;;;;;20.70;10.27;;;;;;;17.83;100.00;102026.03;5092462;28;20028;-78
2024/03/20 11:06:31;;;;;;;20.20;11.30;;;;;;;18.38;100.00;102022.16;5092500;28;20472;-78
2024/03/20 11:09:00;;;;;;;29.65;11.27;;;;;;;18.63;100.00;102020.41;5092545;28;20043;-75